Barnum Island, New York
Current Conditions -  °F | °C
As of 5:08 AM on Sunday 26 Oct 2014 (Local Time) from KJFK Reporting Station
Few Clouds Few Clouds  
Wind Chill: 57°   Ceiling: Unl
Heat Index: 57°   Visibility: 10mi
Dew Point: 43°   Wind: 15mph
Humidity: 59%   Direction: 330°NNW
Pressure: 29.59"   Gusts: NA
Location:  40.6062°N, 73.6508°W
Report Text: KJFK 260908Z 33013KT 10SM FEW100 14/06 A2959 RMK AO2 WSHFT 0848
Loading
Personal Weather Stations






























Interactive Weather Map
Tropical Storm Tracking
New forecast layout! Learn more

10-Day Weather Forecast

Advertisements
Track Severe Weather on mobile